createdAt,value
2023-03-26T00:01:23.992Z,1.45
2023-03-26T00:03:50.316Z,1.42
2023-03-26T00:06:16.617Z,1.46
2023-03-26T00:08:42.921Z,1.55
2023-03-26T00:11:09.250Z,1.36
2023-03-26T00:13:35.549Z,1.29
2023-03-26T00:16:01.872Z,1.38
2023-03-26T00:18:28.315Z,1.43
2023-03-26T00:20:54.606Z,1.37
2023-03-26T00:23:20.904Z,1.41
2023-03-26T00:25:49.151Z,1.48
2023-03-26T00:28:15.812Z,1.65
2023-03-26T00:30:42.171Z,1.42
2023-03-26T00:33:08.595Z,1.52
2023-03-26T00:35:34.957Z,1.52
2023-03-26T00:38:01.287Z,1.63
2023-03-26T00:40:27.624Z,1.54
2023-03-26T00:42:53.912Z,1.85
2023-03-26T00:45:20.217Z,1.72
2023-03-26T00:47:46.553Z,1.67
2023-03-26T00:50:12.898Z,1.71
2023-03-26T00:52:39.219Z,1.80
2023-03-26T00:55:05.546Z,1.76
2023-03-26T00:57:35.743Z,2.02
2023-03-26T01:00:02.591Z,2.00
2023-03-26T01:02:28.988Z,2.03
2023-03-26T01:04:55.328Z,1.98
2023-03-26T01:07:21.665Z,1.85
2023-03-26T01:09:47.970Z,2.11
2023-03-26T01:12:14.267Z,1.76
2023-03-26T01:14:40.582Z,1.71
2023-03-26T01:17:07.016Z,1.74
2023-03-26T01:19:33.435Z,1.67
2023-03-26T01:21:59.729Z,1.78
2023-03-26T01:24:26.095Z,1.68
2023-03-26T01:26:52.390Z,1.68
2023-03-26T01:29:18.680Z,1.58
2023-03-26T01:31:44.999Z,1.99
2023-03-26T01:34:11.293Z,2.07
2023-03-26T01:36:37.586Z,1.87
2023-03-26T01:39:03.913Z,1.75
2023-03-26T01:41:30.207Z,1.77
2023-03-26T01:43:56.527Z,1.87
2023-03-26T01:46:22.906Z,1.85
2023-03-26T01:48:49.210Z,2.09
2023-03-26T01:51:15.511Z,2.11
2023-03-26T01:53:41.822Z,1.84
2023-03-26T01:56:08.118Z,2.05
2023-03-26T01:58:34.426Z,2.05
2023-03-26T02:01:00.763Z,2.28
2023-03-26T02:03:27.200Z,2.05
2023-03-26T02:05:53.816Z,2.02
2023-03-26T02:08:20.356Z,2.08
2023-03-26T02:10:46.675Z,2.02
2023-03-26T02:13:12.969Z,2.00
2023-03-26T02:15:39.275Z,2.03
2023-03-26T02:18:05.580Z,1.91
2023-03-26T02:20:31.930Z,2.21
2023-03-26T02:22:58.252Z,2.21
2023-03-26T02:25:24.588Z,2.02
2023-03-26T02:27:50.909Z,2.37
2023-03-26T02:30:17.273Z,2.23
2023-03-26T02:32:43.605Z,2.19
2023-03-26T02:35:10.016Z,2.18
2023-03-26T02:37:36.512Z,2.34
2023-03-26T02:40:02.815Z,2.32
2023-03-26T02:42:29.115Z,2.39
2023-03-26T02:44:55.442Z,2.01
2023-03-26T02:47:21.741Z,2.17
2023-03-26T02:49:48.046Z,2.18
2023-03-26T02:52:14.354Z,1.96
2023-03-26T02:54:40.645Z,1.98
2023-03-26T02:57:06.994Z,2.15
2023-03-26T02:59:33.312Z,2.21
2023-03-26T03:01:59.643Z,1.94
2023-03-26T03:04:25.979Z,2.04
2023-03-26T03:06:52.293Z,2.15
2023-03-26T03:09:18.586Z,1.86
2023-03-26T03:11:44.896Z,1.66
2023-03-26T03:14:11.207Z,1.78
2023-03-26T03:16:38.662Z,1.77
2023-03-26T03:19:05.004Z,1.72
2023-03-26T03:21:31.311Z,1.73
2023-03-26T03:24:00.156Z,1.74
2023-03-26T03:26:26.835Z,1.76
2023-03-26T03:28:53.150Z,2.66
2023-03-26T03:31:19.511Z,2.72
2023-03-26T03:33:45.858Z,1.75
2023-03-26T03:36:20.733Z,1.61
2023-03-26T03:38:48.065Z,1.76
2023-03-26T03:41:14.403Z,1.76
2023-03-26T03:43:40.699Z,1.88
2023-03-26T03:46:07.039Z,1.79
2023-03-26T03:48:33.394Z,2.05
2023-03-26T03:50:59.694Z,2.03
2023-03-26T03:53:26.065Z,2.00
2023-03-26T03:55:52.551Z,1.70
2023-03-26T03:58:19.052Z,1.90
2023-03-26T04:00:45.347Z,1.88
2023-03-26T04:03:11.764Z,1.86
2023-03-26T04:05:38.106Z,1.66
2023-03-26T04:08:04.423Z,1.90
2023-03-26T04:10:30.748Z,1.94
2023-03-26T04:12:57.059Z,2.23
2023-03-26T04:15:23.387Z,2.03
2023-03-26T04:17:49.725Z,1.73
2023-03-26T04:20:16.171Z,1.69
2023-03-26T04:22:42.523Z,1.75
2023-03-26T04:25:08.842Z,2.01
2023-03-26T04:27:35.143Z,2.25
2023-03-26T04:30:01.440Z,2.17
2023-03-26T04:32:27.785Z,1.72
2023-03-26T04:34:54.105Z,1.77
2023-03-26T04:37:20.412Z,1.80
2023-03-26T04:39:46.754Z,1.83
2023-03-26T04:42:13.039Z,1.94
2023-03-26T04:44:39.328Z,2.11
2023-03-26T04:47:05.656Z,1.89
2023-03-26T04:49:31.958Z,1.75
2023-03-26T04:51:58.258Z,2.80
2023-03-26T04:54:24.592Z,3.36
2023-03-26T04:56:50.903Z,2.06
2023-03-26T04:59:17.215Z,1.91
2023-03-26T05:01:43.576Z,1.86
2023-03-26T05:04:09.908Z,2.79
2023-03-26T05:06:36.228Z,2.42
2023-03-26T05:09:02.532Z,1.73
2023-03-26T05:11:28.830Z,2.13
2023-03-26T05:13:55.130Z,2.58
2023-03-26T05:16:21.486Z,2.13
2023-03-26T05:18:47.842Z,2.35
2023-03-26T05:21:14.128Z,2.13
2023-03-26T05:23:40.476Z,2.51
2023-03-26T05:26:06.828Z,2.57
2023-03-26T05:28:33.132Z,2.22
2023-03-26T05:30:59.450Z,1.98
2023-03-26T05:33:25.875Z,1.81
2023-03-26T05:35:52.277Z,1.69
2023-03-26T05:38:18.706Z,1.70
2023-03-26T05:40:45.002Z,1.41
2023-03-26T05:43:11.299Z,1.60
2023-03-26T05:45:37.646Z,1.56
2023-03-26T05:48:03.994Z,2.11
2023-03-26T05:50:30.337Z,1.69
2023-03-26T05:52:56.650Z,2.07
2023-03-26T05:55:22.975Z,2.11
2023-03-26T05:57:49.268Z,2.56
2023-03-26T06:00:15.593Z,2.32
2023-03-26T06:02:41.904Z,1.62
2023-03-26T06:05:08.217Z,1.21
2023-03-26T06:07:34.539Z,1.44
2023-03-26T06:10:00.832Z,1.34
2023-03-26T06:12:27.141Z,1.45
2023-03-26T06:14:53.454Z,1.39
2023-03-26T06:17:19.746Z,1.64
2023-03-26T06:19:46.062Z,1.26
2023-03-26T06:22:12.416Z,1.43
2023-03-26T06:24:38.782Z,1.36
2023-03-26T06:27:05.088Z,1.20
2023-03-26T06:29:31.400Z,1.19
2023-03-26T06:32:06.162Z,1.11
2023-03-26T06:34:38.956Z,1.14
2023-03-26T06:37:05.254Z,2.95
2023-03-26T06:39:31.551Z,4.82
2023-03-26T06:41:57.884Z,5.73
2023-03-26T06:44:24.188Z,5.61
2023-03-26T06:46:50.560Z,2.94
2023-03-26T06:49:16.943Z,1.88
2023-03-26T06:51:43.243Z,2.03
2023-03-26T06:54:09.544Z,1.91
2023-03-26T06:56:35.924Z,1.65
2023-03-26T06:59:02.259Z,1.50
2023-03-26T07:01:28.691Z,1.58
2023-03-26T07:03:55.033Z,1.56
2023-03-26T07:06:26.224Z,1.67
2023-03-26T07:08:52.601Z,1.63
2023-03-26T07:11:18.925Z,1.66
2023-03-26T07:13:45.217Z,1.51
2023-03-26T07:16:11.533Z,1.66
2023-03-26T07:18:37.900Z,1.65
2023-03-26T07:21:04.210Z,2.07
2023-03-26T07:23:30.508Z,2.22
2023-03-26T07:25:56.884Z,1.89
2023-03-26T07:28:23.209Z,2.03
2023-03-26T07:30:49.503Z,2.26
2023-03-26T07:33:15.899Z,2.30
2023-03-26T07:35:42.207Z,1.62
2023-03-26T07:38:08.505Z,1.51
2023-03-26T07:40:34.824Z,1.68
2023-03-26T07:43:01.112Z,1.73
2023-03-26T07:45:27.419Z,2.38
2023-03-26T07:47:53.829Z,2.79
2023-03-26T07:50:20.240Z,3.13
2023-03-26T07:52:46.541Z,2.98
2023-03-26T07:55:12.900Z,2.93
2023-03-26T07:57:39.249Z,2.47
2023-03-26T08:00:05.589Z,2.69
2023-03-26T08:02:31.961Z,2.07
2023-03-26T08:04:58.403Z,2.35
2023-03-26T08:07:24.784Z,2.97
2023-03-26T08:09:51.096Z,1.97
2023-03-26T08:12:17.406Z,1.95
2023-03-26T08:14:43.707Z,1.71
2023-03-26T08:17:10.043Z,1.81
2023-03-26T08:19:36.350Z,1.99
2023-03-26T08:22:02.640Z,1.89
2023-03-26T08:24:28.974Z,1.96
2023-03-26T08:26:55.290Z,2.27
2023-03-26T08:29:21.628Z,3.15
2023-03-26T08:31:47.992Z,2.92
2023-03-26T08:34:14.292Z,1.96
2023-03-26T08:36:40.599Z,2.62
2023-03-26T08:39:06.949Z,2.41
2023-03-26T08:41:33.251Z,1.97
2023-03-26T08:43:59.545Z,2.64
2023-03-26T08:46:25.920Z,3.28
2023-03-26T08:48:52.240Z,3.14
2023-03-26T08:51:18.538Z,3.12
2023-03-26T08:53:44.861Z,3.06
2023-03-26T08:56:11.159Z,3.03
2023-03-26T08:58:37.585Z,2.51
2023-03-26T09:01:03.945Z,2.56
2023-03-26T09:03:30.253Z,2.15
2023-03-26T09:05:56.562Z,1.97
2023-03-26T09:08:22.882Z,2.16
2023-03-26T09:10:49.190Z,2.41
2023-03-26T09:13:15.482Z,2.71
2023-03-26T09:15:41.820Z,2.71
2023-03-26T09:18:08.133Z,2.37
2023-03-26T09:20:34.509Z,1.95
2023-03-26T09:23:00.834Z,1.87
2023-03-26T09:25:27.176Z,1.88
2023-03-26T09:27:53.474Z,2.41
2023-03-26T09:30:19.791Z,1.95
2023-03-26T09:32:46.096Z,2.31
2023-03-26T09:35:13.423Z,1.87
2023-03-26T09:37:57.388Z,1.93
2023-03-26T09:40:24.734Z,1.78
2023-03-26T09:42:51.065Z,2.17
2023-03-26T09:45:17.365Z,2.14
2023-03-26T09:47:43.745Z,1.98
2023-03-26T09:50:10.102Z,1.96
2023-03-26T09:52:36.408Z,2.59
2023-03-26T09:55:02.721Z,2.00
2023-03-26T09:57:29.183Z,2.08
2023-03-26T09:59:55.514Z,1.99
2023-03-26T10:02:21.807Z,2.02
2023-03-26T10:05:08.172Z,2.61
2023-03-26T10:07:34.478Z,3.33
2023-03-26T10:10:00.775Z,2.40
2023-03-26T10:12:27.103Z,2.60
2023-03-26T10:14:53.406Z,2.19
2023-03-26T10:17:19.843Z,2.36
2023-03-26T10:19:46.198Z,3.59
2023-03-26T10:22:12.491Z,2.69
2023-03-26T10:24:38.802Z,1.67
2023-03-26T10:27:09.113Z,1.66
2023-03-26T10:29:37.006Z,1.76
2023-03-26T10:32:03.305Z,1.68
2023-03-26T10:34:29.803Z,1.65
2023-03-26T10:36:56.237Z,1.42
2023-03-26T10:39:36.511Z,1.50
2023-03-26T10:42:05.703Z,1.61
2023-03-26T10:44:32.024Z,1.63
2023-03-26T10:46:58.362Z,2.29
2023-03-26T10:49:24.710Z,1.60
2023-03-26T10:51:51.009Z,1.77
2023-03-26T10:54:17.315Z,1.73
2023-03-26T10:56:43.680Z,1.58
2023-03-26T10:59:10.024Z,1.54
2023-03-26T11:01:36.353Z,1.47
2023-03-26T11:04:02.711Z,1.35
2023-03-26T11:06:29.005Z,1.55
2023-03-26T11:08:55.430Z,1.33
2023-03-26T11:11:21.792Z,1.41
2023-03-26T11:13:48.087Z,1.42
2023-03-26T11:16:14.460Z,1.39
2023-03-26T11:18:40.820Z,1.34
2023-03-26T11:21:19.302Z,1.19
2023-03-26T11:23:46.736Z,1.44
2023-03-26T11:26:13.064Z,1.38
2023-03-26T11:28:39.451Z,1.17
2023-03-26T11:31:05.806Z,1.24
2023-03-26T11:33:32.778Z,1.20
2023-03-26T11:35:59.311Z,1.22
2023-03-26T11:38:25.669Z,1.21
2023-03-26T11:40:52.016Z,1.38
2023-03-26T11:43:18.343Z,1.28
2023-03-26T11:45:44.677Z,1.29
2023-03-26T11:48:10.961Z,1.36
2023-03-26T11:50:37.255Z,1.38
2023-03-26T11:53:03.571Z,1.45
2023-03-26T11:55:29.869Z,1.25
2023-03-26T11:57:56.170Z,1.43
2023-03-26T12:00:22.505Z,1.35
2023-03-26T12:02:48.822Z,1.45
2023-03-26T12:05:15.142Z,1.55
2023-03-26T12:07:41.510Z,1.81
2023-03-26T12:10:18.117Z,1.58
2023-03-26T12:12:45.452Z,1.57
2023-03-26T12:15:11.743Z,2.07
2023-03-26T12:17:38.063Z,1.91
2023-03-26T12:20:04.389Z,1.33
2023-03-26T12:22:30.699Z,0.95
2023-03-26T12:24:56.983Z,0.99
2023-03-26T12:27:23.285Z,0.97
2023-03-26T12:29:49.581Z,0.75
2023-03-26T12:32:15.882Z,0.85
2023-03-26T12:34:42.200Z,1.02
2023-03-26T12:37:08.506Z,1.14
2023-03-26T12:40:10.275Z,1.21
2023-03-26T12:44:43.345Z,0.93
2023-03-26T12:45:07.335Z,1.03
2023-03-26T12:47:57.212Z,0.97
2023-03-26T12:50:34.154Z,0.96
2023-03-26T12:53:01.784Z,0.96
2023-03-26T12:55:28.097Z,1.42
2023-03-26T12:57:54.398Z,1.83
2023-03-26T13:00:20.719Z,1.34
2023-03-26T13:02:47.124Z,1.13
2023-03-26T13:05:13.512Z,0.35
2023-03-26T13:07:39.831Z,1.20
2023-03-26T13:10:06.128Z,1.27
2023-03-26T13:12:32.414Z,0.94
2023-03-26T13:14:58.862Z,0.58
2023-03-26T13:17:25.196Z,0.36
2023-03-26T13:19:51.534Z,0.39
2023-03-26T13:22:17.834Z,0.36
2023-03-26T13:24:44.308Z,0.52
2023-03-26T13:27:10.602Z,0.58
2023-03-26T13:29:36.934Z,0.95
2023-03-26T13:32:03.233Z,1.11
2023-03-26T13:34:29.725Z,1.26
2023-03-26T13:36:56.073Z,2.19
2023-03-26T13:39:22.376Z,1.43
2023-03-26T13:41:48.661Z,0.61
2023-03-26T13:44:14.970Z,1.46
2023-03-26T13:46:41.299Z,1.47
2023-03-26T13:49:07.632Z,0.62
2023-03-26T13:51:33.951Z,1.05
2023-03-26T13:54:00.248Z,1.33
2023-03-26T13:56:26.565Z,1.38
2023-03-26T13:58:53.149Z,1.27
2023-03-26T14:01:19.510Z,0.89
2023-03-26T14:03:45.925Z,0.63
2023-03-26T14:06:12.356Z,0.82
2023-03-26T14:08:38.670Z,0.83
2023-03-26T14:11:04.964Z,0.76
2023-03-26T14:13:31.300Z,0.86
2023-03-26T14:15:57.778Z,0.80
2023-03-26T14:18:24.198Z,1.05
2023-03-26T14:20:50.548Z,1.13
2023-03-26T14:23:16.847Z,1.42
2023-03-26T14:25:43.146Z,1.69
2023-03-26T14:28:09.470Z,1.37
2023-03-26T14:30:35.780Z,0.94
2023-03-26T14:33:02.138Z,0.89
2023-03-26T14:35:28.497Z,0.77
2023-03-26T14:37:54.806Z,0.96
2023-03-26T14:40:21.150Z,0.74
2023-03-26T14:42:47.473Z,0.69
2023-03-26T14:45:13.764Z,0.81
2023-03-26T14:47:40.306Z,0.78
2023-03-26T14:50:06.687Z,0.73
2023-03-26T14:52:32.976Z,0.82
2023-03-26T14:55:02.125Z,0.63
2023-03-26T14:57:28.448Z,0.81
2023-03-26T14:59:54.745Z,0.81
2023-03-26T15:02:21.212Z,0.90
2023-03-26T15:04:47.594Z,0.86
2023-03-26T15:07:13.876Z,1.01
2023-03-26T15:09:40.155Z,0.83
2023-03-26T15:12:12.673Z,0.83
2023-03-26T15:14:39.638Z,0.78
2023-03-26T15:17:05.938Z,0.77
2023-03-26T15:19:32.236Z,1.08
2023-03-26T15:21:58.523Z,0.81
2023-03-26T15:24:24.871Z,0.69
2023-03-26T15:26:51.168Z,0.73
2023-03-26T15:29:17.472Z,0.85
2023-03-26T15:31:43.834Z,0.97
2023-03-26T15:34:10.126Z,0.89
2023-03-26T15:36:36.411Z,0.77
2023-03-26T15:39:02.707Z,1.22
2023-03-26T15:41:29.000Z,1.96
2023-03-26T15:44:24.615Z,1.76
2023-03-26T15:46:41.710Z,1.48
2023-03-26T15:49:07.998Z,1.06
2023-03-26T15:51:47.105Z,1.07
2023-03-26T15:54:14.171Z,1.18
2023-03-26T15:56:40.558Z,1.20
2023-03-26T15:59:06.895Z,1.36
2023-03-26T16:01:33.293Z,1.64
2023-03-26T16:03:59.626Z,1.75
2023-03-26T16:06:25.918Z,1.24
2023-03-26T16:08:52.291Z,1.02
2023-03-26T16:11:18.581Z,1.21
2023-03-26T16:13:44.911Z,1.06
2023-03-26T16:16:11.267Z,1.17
2023-03-26T16:18:37.604Z,1.06
2023-03-26T16:21:03.906Z,1.11
2023-03-26T16:23:30.213Z,1.14
2023-03-26T16:25:56.508Z,1.30
2023-03-26T16:28:22.811Z,1.01
2023-03-26T16:30:49.420Z,1.10
2023-03-26T16:33:16.032Z,1.39
2023-03-26T16:35:42.426Z,0.87
2023-03-26T16:38:08.748Z,0.88
2023-03-26T16:40:35.044Z,1.06
2023-03-26T16:43:01.338Z,1.08
2023-03-26T16:45:27.652Z,0.93
2023-03-26T16:47:54.015Z,0.93
2023-03-26T16:50:20.329Z,0.86
2023-03-26T16:52:46.653Z,1.21
2023-03-26T16:55:12.987Z,0.94
2023-03-26T16:57:39.274Z,0.97
2023-03-26T17:00:07.406Z,0.95
2023-03-26T17:02:34.063Z,0.98
2023-03-26T17:05:00.402Z,1.08
2023-03-26T17:07:26.702Z,0.91
2023-03-26T17:09:52.998Z,1.12
2023-03-26T17:12:19.297Z,1.38
2023-03-26T17:14:45.605Z,1.35
2023-03-26T17:17:11.885Z,1.19
2023-03-26T17:19:38.178Z,1.06
2023-03-26T17:22:04.495Z,1.20
2023-03-26T17:24:30.786Z,1.01
2023-03-26T17:26:57.083Z,1.23
2023-03-26T17:29:23.409Z,1.11
2023-03-26T17:31:49.758Z,1.18
2023-03-26T17:34:16.064Z,1.04
2023-03-26T17:36:42.404Z,1.29
2023-03-26T17:39:08.709Z,1.58
2023-03-26T17:41:35.163Z,1.63
2023-03-26T17:44:01.490Z,1.81
2023-03-26T17:46:27.803Z,1.43
2023-03-26T17:48:54.098Z,1.71
2023-03-26T17:51:20.404Z,1.49
2023-03-26T17:53:46.701Z,1.05
2023-03-26T17:56:13.005Z,1.14
2023-03-26T17:58:39.388Z,1.29
2023-03-26T18:01:05.727Z,1.34
2023-03-26T18:03:32.081Z,1.13
2023-03-26T18:05:58.509Z,1.42
2023-03-26T18:08:24.842Z,1.20
2023-03-26T18:10:51.122Z,1.15
2023-03-26T18:13:17.444Z,1.49
2023-03-26T18:15:45.038Z,1.49
2023-03-26T18:18:11.462Z,1.35
2023-03-26T18:20:37.776Z,1.45
2023-03-26T18:23:04.069Z,1.33
2023-03-26T18:25:30.371Z,1.26
2023-03-26T18:27:56.689Z,1.12
2023-03-26T18:30:22.972Z,1.20
2023-03-26T18:32:49.278Z,1.40
2023-03-26T18:35:15.636Z,1.40
2023-03-26T18:37:41.972Z,1.61
2023-03-26T18:40:08.258Z,1.44
2023-03-26T18:42:34.617Z,1.40
2023-03-26T18:45:02.165Z,1.53
2023-03-26T18:47:30.344Z,1.26
2023-03-26T18:49:56.694Z,1.47
2023-03-26T18:52:23.011Z,2.46
2023-03-26T18:54:49.301Z,1.53
2023-03-26T18:57:16.383Z,0.89
2023-03-26T18:59:42.938Z,1.29
2023-03-26T19:02:09.421Z,1.12
2023-03-26T19:04:35.759Z,1.21
2023-03-26T19:07:02.072Z,1.66
2023-03-26T19:09:32.049Z,1.19
2023-03-26T19:11:58.983Z,1.07
2023-03-26T19:14:25.267Z,0.90
2023-03-26T19:16:51.589Z,0.82
2023-03-26T19:19:17.901Z,0.81
2023-03-26T19:21:44.197Z,0.91
2023-03-26T19:24:10.504Z,1.09
2023-03-26T19:26:36.835Z,0.98
2023-03-26T19:29:03.126Z,0.87
2023-03-26T19:31:29.468Z,0.80
2023-03-26T19:33:55.779Z,0.88
2023-03-26T19:36:22.065Z,0.91
2023-03-26T19:38:48.367Z,0.93
2023-03-26T19:41:14.719Z,1.14
2023-03-26T19:43:41.011Z,1.00
2023-03-26T19:46:07.314Z,0.72
2023-03-26T19:48:45.896Z,0.59
2023-03-26T19:51:13.265Z,0.64
2023-03-26T19:53:39.587Z,0.70
2023-03-26T19:56:06.398Z,0.82
2023-03-26T19:58:32.795Z,0.82
2023-03-26T20:00:59.308Z,0.66
2023-03-26T20:03:25.900Z,0.75
2023-03-26T20:05:52.221Z,1.83
2023-03-26T20:08:18.539Z,1.70
2023-03-26T20:10:44.831Z,0.80
2023-03-26T20:13:11.141Z,0.70
2023-03-26T20:15:37.457Z,0.59
2023-03-26T20:18:03.762Z,0.70
2023-03-26T20:20:30.055Z,0.60
2023-03-26T20:22:56.360Z,0.63
2023-03-26T20:25:22.637Z,0.58
2023-03-26T20:27:48.950Z,0.65
2023-03-26T20:30:16.460Z,0.67
2023-03-26T20:32:45.736Z,0.77
2023-03-26T20:35:12.444Z,0.54
2023-03-26T20:37:38.852Z,0.75
2023-03-26T20:40:05.141Z,0.68
2023-03-26T20:42:31.427Z,0.81
2023-03-26T20:44:57.736Z,0.76
2023-03-26T20:47:24.063Z,0.86
2023-03-26T20:49:50.366Z,0.71
2023-03-26T20:52:16.704Z,1.24
2023-03-26T20:54:43.001Z,1.83
2023-03-26T20:57:09.304Z,1.07
2023-03-26T20:59:35.674Z,0.65
2023-03-26T21:02:02.103Z,0.58
2023-03-26T21:04:28.436Z,0.65
2023-03-26T21:06:57.845Z,0.58
2023-03-26T21:09:29.878Z,0.42
2023-03-26T21:11:56.191Z,0.53
2023-03-26T21:14:22.480Z,0.52
2023-03-26T21:16:48.856Z,0.68
2023-03-26T21:19:15.207Z,0.56
2023-03-26T21:21:41.495Z,0.61
2023-03-26T21:24:07.792Z,0.92
2023-03-26T21:26:34.102Z,1.34
2023-03-26T21:29:08.015Z,1.24
2023-03-26T21:31:34.375Z,1.73
2023-03-26T21:34:00.676Z,0.82
2023-03-26T21:36:26.990Z,0.54
2023-03-26T21:38:53.304Z,0.70
2023-03-26T21:41:19.634Z,1.76
2023-03-26T21:43:45.921Z,2.44
2023-03-26T21:46:12.250Z,2.82
2023-03-26T21:48:38.556Z,2.89
2023-03-26T21:51:04.859Z,1.91
2023-03-26T21:53:31.216Z,1.83
2023-03-26T21:55:57.517Z,1.70
2023-03-26T21:58:23.885Z,2.08
2023-03-26T22:00:50.373Z,2.01
2023-03-26T22:03:16.766Z,1.62
2023-03-26T22:05:43.176Z,1.68
2023-03-26T22:08:09.501Z,1.63
2023-03-26T22:10:35.828Z,1.45
2023-03-26T22:13:02.119Z,1.33
2023-03-26T22:15:28.427Z,0.88
2023-03-26T22:17:54.881Z,2.17
2023-03-26T22:20:21.334Z,5.72
2023-03-26T22:22:47.651Z,2.32
2023-03-26T22:25:13.948Z,1.22
2023-03-26T22:27:43.894Z,0.82
2023-03-26T22:30:10.851Z,0.96
2023-03-26T22:32:37.198Z,0.91
2023-03-26T22:35:03.490Z,0.73
2023-03-26T22:37:29.818Z,0.77
2023-03-26T22:39:56.118Z,0.94
2023-03-26T22:42:22.412Z,0.95
2023-03-26T22:44:48.717Z,0.84
2023-03-26T22:47:15.082Z,1.00
2023-03-26T22:49:41.366Z,1.06
2023-03-26T22:52:07.693Z,1.01
2023-03-26T22:54:33.991Z,0.98
2023-03-26T22:57:00.391Z,0.83
2023-03-26T22:59:26.752Z,0.73
2023-03-26T23:01:53.056Z,0.69
2023-03-26T23:04:31.628Z,0.49
2023-03-26T23:06:58.615Z,0.51
2023-03-26T23:09:24.914Z,0.69
2023-03-26T23:11:51.205Z,1.03
2023-03-26T23:14:17.520Z,0.88
2023-03-26T23:16:43.825Z,0.72
2023-03-26T23:19:10.119Z,0.63
2023-03-26T23:21:36.443Z,0.62
2023-03-26T23:24:02.734Z,0.70
2023-03-26T23:26:30.749Z,0.61
2023-03-26T23:28:59.049Z,0.54
2023-03-26T23:31:25.408Z,0.49
2023-03-26T23:33:51.775Z,0.51
2023-03-26T23:36:18.603Z,0.41
2023-03-26T23:38:45.166Z,0.23
2023-03-26T23:41:11.461Z,0.43
2023-03-26T23:43:37.785Z,0.51
2023-03-26T23:46:04.115Z,0.64
2023-03-26T23:48:30.439Z,0.84
2023-03-26T23:51:04.063Z,0.75
2023-03-26T23:53:30.888Z,0.53
2023-03-26T23:55:57.217Z,0.61
2023-03-26T23:58:23.513Z,0.86
